createdAt,value
2022-10-15T00:09:35.685Z,0.10
2022-10-15T00:19:38.860Z,0.20
2022-10-15T00:29:41.215Z,0.00
2022-10-15T00:39:45.249Z,0.15
2022-10-15T00:49:56.292Z,0.13
2022-10-15T01:00:04.945Z,0.00
2022-10-15T01:10:10.248Z,0.10
2022-10-15T01:20:34.090Z,0.00
2022-10-15T01:30:43.487Z,0.27
2022-10-15T01:41:19.898Z,0.10
2022-10-15T01:51:25.338Z,0.00
2022-10-15T02:01:27.778Z,0.10
2022-10-15T02:11:37.874Z,0.10
2022-10-15T02:21:49.051Z,0.20
2022-10-15T02:31:53.319Z,0.20
2022-10-15T02:51:58.207Z,0.20
2022-10-15T03:02:00.458Z,0.60
2022-10-15T03:12:02.678Z,0.20
2022-10-15T03:22:04.919Z,0.20
2022-10-15T03:32:07.375Z,0.37
2022-10-15T03:42:09.874Z,0.17
2022-10-15T03:52:12.132Z,0.17
2022-10-15T04:02:14.515Z,0.20
2022-10-15T04:12:17.911Z,0.00
2022-10-15T04:22:20.374Z,0.10
2022-10-15T04:32:23.947Z,0.20
2022-10-15T04:42:28.983Z,0.00
2022-10-15T04:52:31.370Z,0.20
2022-10-15T05:02:33.770Z,0.20
2022-10-15T05:12:36.020Z,0.10
2022-10-15T05:22:41.415Z,0.22
2022-10-15T05:32:43.920Z,0.10
2022-10-15T05:52:56.490Z,0.45
2022-10-15T06:02:59.200Z,0.25
2022-10-15T06:13:01.451Z,0.20
2022-10-15T06:23:05.857Z,0.10
2022-10-15T06:33:08.118Z,0.32
2022-10-15T06:43:11.758Z,0.20
2022-10-15T06:53:14.081Z,0.30
2022-10-15T07:03:16.513Z,0.20
2022-10-15T07:13:19.779Z,0.10
2022-10-15T07:23:25.527Z,0.30
2022-10-15T07:33:31.043Z,0.15
2022-10-15T07:43:34.753Z,0.40
2022-10-15T07:53:37.207Z,0.40
2022-10-15T08:03:39.737Z,0.20
2022-10-15T08:13:43.600Z,0.20
2022-10-15T08:33:48.610Z,0.32
2022-10-15T08:43:52.389Z,0.20
2022-10-15T08:54:01.880Z,0.20
2022-10-15T09:04:39.534Z,0.10
2022-10-15T09:14:44.867Z,0.40
2022-10-15T09:24:47.377Z,0.32
2022-10-15T09:35:02.309Z,0.28
2022-10-15T09:45:10.119Z,0.43
2022-10-15T09:55:15.625Z,0.40
2022-10-15T10:05:30.510Z,0.30
2022-10-15T10:15:41.846Z,0.30
2022-10-15T10:25:44.797Z,0.20
2022-10-15T10:35:53.484Z,0.40
2022-10-15T10:46:03.614Z,0.30
2022-10-15T10:56:11.039Z,0.70
2022-10-15T11:06:33.209Z,0.20
2022-10-15T11:17:01.548Z,0.28
2022-10-15T11:27:22.526Z,0.20
2022-10-15T11:37:31.970Z,0.60
2022-10-15T11:47:54.091Z,0.60
2022-10-15T11:58:02.900Z,0.50
2022-10-15T12:08:06.335Z,0.30
2022-10-15T12:18:27.289Z,0.30
2022-10-15T12:28:33.021Z,0.50
2022-10-15T12:38:39.444Z,0.40
2022-10-15T12:48:48.498Z,0.30
2022-10-15T12:58:54.677Z,0.20
2022-10-15T13:09:12.503Z,0.30
2022-10-15T13:19:46.729Z,0.30
2022-10-15T13:30:02.576Z,0.30
2022-10-15T13:40:08.456Z,0.30
2022-10-15T13:50:13.552Z,0.47
2022-10-15T14:00:27.010Z,0.32
2022-10-15T14:10:29.620Z,0.68
2022-10-15T14:20:33.553Z,0.47
2022-10-15T14:30:37.272Z,0.30
2022-10-15T14:40:40.031Z,0.30
2022-10-15T14:50:44.818Z,0.23
2022-10-15T15:00:58.287Z,0.35
2022-10-15T15:11:03.453Z,0.40
2022-10-15T15:21:13.462Z,0.30
2022-10-15T15:31:19.430Z,0.37
2022-10-15T15:41:24.435Z,0.43
2022-10-15T15:51:29.647Z,0.60
2022-10-15T16:01:32.651Z,0.70
2022-10-15T16:11:37.648Z,0.70
2022-10-15T16:21:40.442Z,0.55
2022-10-15T16:31:43.589Z,0.60
2022-10-15T16:41:46.014Z,0.40
2022-10-15T16:51:48.706Z,0.30
2022-10-15T17:01:51.625Z,0.95
2022-10-15T17:11:54.286Z,0.60
2022-10-15T17:21:56.740Z,0.75
2022-10-15T17:31:59.082Z,1.30
2022-10-15T17:42:01.372Z,1.30
2022-10-15T17:52:03.742Z,1.30
2022-10-15T18:02:06.511Z,1.35
2022-10-15T18:12:09.180Z,2.10
2022-10-15T18:22:11.684Z,2.70
2022-10-15T18:32:14.280Z,1.55
2022-10-15T18:42:16.839Z,1.27
2022-10-15T18:52:34.917Z,1.10
2022-10-15T19:02:41.849Z,1.50
2022-10-15T19:12:44.543Z,1.75
2022-10-15T19:22:47.608Z,3.55
2022-10-15T19:32:50.206Z,3.80
2022-10-15T19:42:52.517Z,3.67
2022-10-15T19:52:55.317Z,2.05
2022-10-15T20:02:57.882Z,1.80
2022-10-15T20:13:00.649Z,1.80
2022-10-15T20:23:04.437Z,2.00
2022-10-15T20:33:08.524Z,1.93
2022-10-15T20:43:11.546Z,2.62
2022-10-15T20:53:14.794Z,2.28
2022-10-15T21:03:17.729Z,2.40
2022-10-15T21:13:20.227Z,2.20
2022-10-15T21:23:22.645Z,2.03
2022-10-15T21:33:25.040Z,2.00
2022-10-15T21:43:29.026Z,3.40
2022-10-15T21:53:31.858Z,1.92
2022-10-15T22:03:34.185Z,2.35
2022-10-15T22:13:37.268Z,1.87
2022-10-15T22:23:39.631Z,1.90
2022-10-15T22:33:42.553Z,1.73
2022-10-15T22:43:44.859Z,1.92
2022-10-15T22:53:47.454Z,2.08
2022-10-15T23:03:52.210Z,1.85
2022-10-15T23:14:00.448Z,2.10
2022-10-15T23:24:04.446Z,1.15
2022-10-15T23:34:06.982Z,1.50
2022-10-15T23:44:09.497Z,1.75
2022-10-15T23:54:18.315Z,2.00
